WZZ25TF LGKR-EGGW
Flight info
| Callsign | WZZ25TF |
|---|---|
| Flight time | N/A |
| Altitude | 36000 |
| Route | OLGAT DCT ABADI DCT CRAYE DCT GISAM DCT LOS DCT RASUG DCT SOTOV DCT XEBIX DCT USUDO DCT LIRSU DCT KOZUF DCT IMPOH DCT SASKI L608 SUMUM Y6 TOSVA |
| Aircraft | A320/M-SDE3FGHIRWY/LB1 |
Departure
| Time | 2026-05-06 10:19 |
|---|---|
| Airport | Corfu Ioannis Kapodistrias International Airport (LGKR) |
Arrival
| Time | N/A |
|---|---|
| Airport | London Luton Airport (EGGW) |
| Time | Latitude | Longitude | Altitude | Speed | Heading |
|---|---|---|---|---|---|
| 2026-05-06 10:02 | 39.60766 | 19.91339 | 9 ft | 0 kts | 78° |
| 2026-05-06 10:11 | 39.60764 | 19.91324 | 9 ft | 2 kts | 78° |
| 2026-05-06 10:11 | 39.60760 | 19.91303 | 9 ft | 2 kts | 77° |
| 2026-05-06 10:11 | 39.60758 | 19.91292 | 10 ft | 0 kts | 77° |
| 2026-05-06 10:12 | 39.60755 | 19.91278 | 10 ft | 2 kts | 73° |
| 2026-05-06 10:12 | 39.60750 | 19.91257 | 10 ft | 2 kts | 46° |
| 2026-05-06 10:12 | 39.60738 | 19.91253 | 12 ft | 1 kts | 352° |
| 2026-05-06 10:13 | 39.60737 | 19.91252 | 12 ft | 0 kts | 349° |
| 2026-05-06 10:14 | 39.60738 | 19.91252 | 12 ft | 0 kts | 349° |
| 2026-05-06 10:16 | 39.60785 | 19.91241 | 9 ft | 15 kts | 349° |
| 2026-05-06 10:16 | 39.60893 | 19.91181 | 9 ft | 18 kts | 330° |
| 2026-05-06 10:16 | 39.61015 | 19.91138 | 9 ft | 19 kts | 348° |
| 2026-05-06 10:17 | 39.61148 | 19.91100 | 10 ft | 20 kts | 347° |
| 2026-05-06 10:17 | 39.61175 | 19.91092 | 10 ft | 0 kts | 348° |
| 2026-05-06 10:17 | 39.61176 | 19.91092 | 10 ft | 0 kts | 348° |
| 2026-05-06 10:17 | 39.61176 | 19.91091 | 10 ft | 0 kts | 348° |
| 2026-05-06 10:18 | 39.61177 | 19.91091 | 10 ft | 0 kts | 348° |
| 2026-05-06 10:18 | 39.61207 | 19.91065 | 10 ft | 12 kts | 311° |
| 2026-05-06 10:18 | 39.61199 | 19.90954 | 10 ft | 3 kts | 194° |
| 2026-05-06 10:18 | 39.61069 | 19.90989 | 9 ft | 52 kts | 168° |
| 2026-05-06 10:19 | 39.60478 | 19.91142 | 8 ft | 118 kts | 168° |
| 2026-05-06 10:19 | 39.59510 | 19.91392 | 126 ft | 154 kts | 168° |
| 2026-05-06 10:19 | 39.58447 | 19.91690 | 702 ft | 158 kts | 161° |
| 2026-05-06 10:19 | 39.57517 | 19.92479 | 1200 ft | 171 kts | 130° |
| 2026-05-06 10:20 | 39.57054 | 19.93917 | 1747 ft | 176 kts | 95° |
| 2026-05-06 10:20 | 39.57378 | 19.95458 | 2178 ft | 188 kts | 56° |
| 2026-05-06 10:20 | 39.58484 | 19.96504 | 2379 ft | 211 kts | 15° |
| 2026-05-06 10:20 | 39.59968 | 19.96483 | 2621 ft | 229 kts | 340° |
| 2026-05-06 10:21 | 39.61361 | 19.95326 | 2889 ft | 251 kts | 313° |
| 2026-05-06 10:21 | 39.62577 | 19.93594 | 3411 ft | 265 kts | 310° |
| 2026-05-06 10:21 | 39.63806 | 19.91779 | 4226 ft | 269 kts | 309° |
| 2026-05-06 10:21 | 39.65035 | 19.89944 | 5109 ft | 271 kts | 309° |
| 2026-05-06 10:22 | 39.66274 | 19.88091 | 5960 ft | 272 kts | 309° |
| 2026-05-06 10:22 | 39.67517 | 19.86232 | 6800 ft | 273 kts | 309° |
| 2026-05-06 10:22 | 39.68768 | 19.84361 | 7589 ft | 275 kts | 309° |
| 2026-05-06 10:22 | 39.70025 | 19.82479 | 8379 ft | 277 kts | 309° |
| 2026-05-06 10:23 | 39.71291 | 19.80585 | 9147 ft | 278 kts | 309° |
| 2026-05-06 10:23 | 39.72561 | 19.78687 | 9914 ft | 280 kts | 309° |
| 2026-05-06 10:23 | 39.73855 | 19.76749 | 10426 ft | 291 kts | 309° |
| 2026-05-06 10:23 | 39.75233 | 19.74680 | 10564 ft | 313 kts | 309° |
| 2026-05-06 10:24 | 39.76695 | 19.72483 | 10869 ft | 328 kts | 309° |
| 2026-05-06 10:24 | 39.77711 | 19.70957 | 11259 ft | 332 kts | 309° |
| 2026-05-06 10:24 | 39.79209 | 19.68709 | 11875 ft | 334 kts | 309° |
| 2026-05-06 10:24 | 39.80737 | 19.66413 | 12503 ft | 337 kts | 309° |
| 2026-05-06 10:25 | 39.82276 | 19.64099 | 13145 ft | 340 kts | 309° |
| 2026-05-06 10:25 | 39.83827 | 19.61766 | 13771 ft | 342 kts | 309° |
| 2026-05-06 10:25 | 39.85391 | 19.59415 | 14340 ft | 345 kts | 309° |
| 2026-05-06 10:25 | 39.86966 | 19.57047 | 14863 ft | 348 kts | 309° |
| 2026-05-06 10:26 | 39.88556 | 19.54653 | 15389 ft | 351 kts | 309° |
| 2026-05-06 10:26 | 39.90156 | 19.52238 | 15892 ft | 354 kts | 309° |
| 2026-05-06 10:26 | 39.91768 | 19.49797 | 16413 ft | 357 kts | 309° |
| 2026-05-06 10:26 | 39.93393 | 19.47337 | 16944 ft | 359 kts | 309° |
| 2026-05-06 10:27 | 39.95030 | 19.44856 | 17467 ft | 362 kts | 309° |
| 2026-05-06 10:27 | 39.96685 | 19.42355 | 17965 ft | 366 kts | 310° |
| 2026-05-06 10:27 | 39.98354 | 19.39834 | 18489 ft | 369 kts | 310° |
| 2026-05-06 10:27 | 40.00041 | 19.37283 | 18962 ft | 372 kts | 309° |
| 2026-05-06 10:28 | 40.01732 | 19.34716 | 19468 ft | 374 kts | 309° |
| 2026-05-06 10:28 | 40.03434 | 19.32129 | 19970 ft | 377 kts | 309° |
| 2026-05-06 10:28 | 40.05147 | 19.29531 | 20477 ft | 379 kts | 309° |
| 2026-05-06 10:28 | 40.06874 | 19.26907 | 20968 ft | 382 kts | 309° |
| 2026-05-06 10:29 | 40.08609 | 19.24269 | 21452 ft | 384 kts | 309° |
| 2026-05-06 10:29 | 40.10349 | 19.21620 | 21921 ft | 386 kts | 309° |
| 2026-05-06 10:29 | 40.12106 | 19.18943 | 22378 ft | 389 kts | 309° |
| 2026-05-06 10:29 | 40.13867 | 19.16254 | 22822 ft | 391 kts | 309° |
| 2026-05-06 10:30 | 40.15641 | 19.13542 | 23256 ft | 393 kts | 309° |
| 2026-05-06 10:30 | 40.17423 | 19.10818 | 23691 ft | 396 kts | 309° |
| 2026-05-06 10:30 | 40.19208 | 19.08086 | 24019 ft | 399 kts | 308° |
| 2026-05-06 10:30 | 40.21014 | 19.05317 | 24368 ft | 401 kts | 308° |
| 2026-05-06 10:31 | 40.22835 | 19.02548 | 24716 ft | 403 kts | 310° |
| 2026-05-06 10:31 | 40.24903 | 19.00049 | 25055 ft | 408 kts | 320° |
| 2026-05-06 10:31 | 40.27301 | 18.98034 | 25384 ft | 412 kts | 329° |
| 2026-05-06 10:31 | 40.29839 | 18.96271 | 25708 ft | 414 kts | 329° |
| 2026-05-06 10:32 | 40.32390 | 18.94492 | 26036 ft | 416 kts | 329° |
| 2026-05-06 10:32 | 40.34950 | 18.92701 | 26357 ft | 418 kts | 329° |
| 2026-05-06 10:32 | 40.37521 | 18.90900 | 26673 ft | 420 kts | 329° |
| 2026-05-06 10:32 | 40.40106 | 18.89091 | 26988 ft | 422 kts | 329° |
| 2026-05-06 10:33 | 40.42702 | 18.87274 | 27315 ft | 423 kts | 329° |
| 2026-05-06 10:33 | 40.45304 | 18.85454 | 27635 ft | 425 kts | 329° |
| 2026-05-06 10:33 | 40.47922 | 18.83619 | 27940 ft | 427 kts | 329° |
| 2026-05-06 10:33 | 40.50545 | 18.81777 | 28246 ft | 429 kts | 329° |
| 2026-05-06 10:34 | 40.53184 | 18.79925 | 28559 ft | 430 kts | 329° |
| 2026-05-06 10:34 | 40.55823 | 18.78077 | 28987 ft | 429 kts | 329° |
| 2026-05-06 10:34 | 40.58456 | 18.76232 | 29378 ft | 429 kts | 329° |
| 2026-05-06 10:34 | 40.61085 | 18.74384 | 29737 ft | 430 kts | 329° |
| 2026-05-06 10:35 | 40.63726 | 18.72522 | 30141 ft | 430 kts | 329° |
| 2026-05-06 10:35 | 40.66361 | 18.70662 | 30501 ft | 430 kts | 329° |
| 2026-05-06 10:35 | 40.68993 | 18.68801 | 30858 ft | 429 kts | 328° |
| 2026-05-06 10:35 | 40.71614 | 18.66944 | 31229 ft | 428 kts | 328° |
| 2026-05-06 10:36 | 40.74231 | 18.65089 | 31604 ft | 427 kts | 328° |
| 2026-05-06 10:36 | 40.76846 | 18.63244 | 31986 ft | 425 kts | 329° |
| 2026-05-06 10:36 | 40.79469 | 18.61436 | 32369 ft | 425 kts | 329° |
| 2026-05-06 10:36 | 40.82092 | 18.59660 | 32745 ft | 423 kts | 329° |
| 2026-05-06 10:37 | 40.84717 | 18.57901 | 33133 ft | 422 kts | 329° |
| 2026-05-06 10:37 | 40.87331 | 18.56150 | 33509 ft | 421 kts | 329° |
| 2026-05-06 10:37 | 40.89941 | 18.54395 | 33874 ft | 420 kts | 329° |
| 2026-05-06 10:37 | 40.92505 | 18.52659 | 34188 ft | 419 kts | 329° |
| 2026-05-06 10:38 | 40.95095 | 18.50894 | 34468 ft | 419 kts | 329° |
| 2026-05-06 10:38 | 40.97683 | 18.49127 | 34734 ft | 418 kts | 329° |
| 2026-05-06 10:38 | 41.00268 | 18.47361 | 34993 ft | 418 kts | 329° |
| 2026-05-06 10:38 | 41.02851 | 18.45595 | 35246 ft | 417 kts | 329° |
| 2026-05-06 10:39 | 41.05431 | 18.43828 | 35490 ft | 417 kts | 329° |
| 2026-05-06 10:39 | 41.08007 | 18.42065 | 35727 ft | 417 kts | 328° |
| 2026-05-06 10:39 | 41.10585 | 18.40297 | 35920 ft | 417 kts | 328° |
| 2026-05-06 10:39 | 41.13159 | 18.38529 | 36068 ft | 419 kts | 329° |
| 2026-05-06 10:40 | 41.18392 | 18.34934 | 36088 ft | 429 kts | 329° |
| 2026-05-06 10:40 | 41.23741 | 18.31268 | 36087 ft | 435 kts | 329° |
| 2026-05-06 10:41 | 41.30137 | 18.26861 | 36086 ft | 435 kts | 329° |
| 2026-05-06 10:41 | 41.36745 | 18.22293 | 36089 ft | 435 kts | 329° |
| 2026-05-06 10:42 | 41.42119 | 18.18584 | 36091 ft | 436 kts | 329° |
| 2026-05-06 10:42 | 41.48743 | 18.13994 | 36094 ft | 436 kts | 329° |
| 2026-05-06 10:43 | 41.58880 | 18.05283 | 36108 ft | 433 kts | 322° |
| 2026-05-06 10:44 | 41.73951 | 17.91898 | 36096 ft | 434 kts | 322° |
| 2026-05-06 10:44 | 41.83994 | 17.82938 | 36097 ft | 433 kts | 322° |
| 2026-05-06 10:45 | 41.93796 | 17.73601 | 36093 ft | 429 kts | 314° |
| 2026-05-06 10:45 | 42.02733 | 17.62925 | 36085 ft | 430 kts | 315° |
| 2026-05-06 10:46 | 42.11647 | 17.52306 | 36087 ft | 431 kts | 314° |
| 2026-05-06 10:46 | 42.20580 | 17.41569 | 36081 ft | 431 kts | 314° |
| 2026-05-06 10:47 | 42.29562 | 17.30773 | 36071 ft | 432 kts | 314° |
| 2026-05-06 10:47 | 42.38515 | 17.19959 | 36078 ft | 432 kts | 314° |
| 2026-05-06 10:48 | 42.47463 | 17.09101 | 36072 ft | 432 kts | 314° |
| 2026-05-06 10:48 | 42.56403 | 16.98212 | 36075 ft | 432 kts | 314° |
| 2026-05-06 10:49 | 42.65327 | 16.87293 | 36063 ft | 432 kts | 314° |
| 2026-05-06 10:49 | 42.74173 | 16.76432 | 36051 ft | 431 kts | 313° |
| 2026-05-06 10:50 | 42.83042 | 16.65511 | 36066 ft | 431 kts | 313° |
| 2026-05-06 10:50 | 42.91924 | 16.54510 | 36049 ft | 432 kts | 313° |
| 2026-05-06 10:51 | 43.00824 | 16.43437 | 36052 ft | 432 kts | 313° |
| 2026-05-06 10:51 | 43.09711 | 16.32345 | 36061 ft | 432 kts | 313° |
| 2026-05-06 10:52 | 43.18584 | 16.21234 | 36044 ft | 433 kts | 313° |
| 2026-05-06 10:52 | 43.27457 | 16.10079 | 36042 ft | 433 kts | 313° |
| 2026-05-06 10:53 | 43.36307 | 15.98887 | 36060 ft | 432 kts | 313° |
| 2026-05-06 10:53 | 43.45154 | 15.87669 | 36036 ft | 433 kts | 312° |
| 2026-05-06 10:54 | 43.53932 | 15.76473 | 36031 ft | 433 kts | 312° |
| 2026-05-06 10:54 | 43.62754 | 15.65196 | 36032 ft | 432 kts | 312° |
| 2026-05-06 10:55 | 43.71629 | 15.53777 | 36036 ft | 434 kts | 312° |
| 2026-05-06 10:55 | 43.80395 | 15.42458 | 36029 ft | 434 kts | 311° |
| 2026-05-06 10:56 | 43.89222 | 15.31037 | 36021 ft | 434 kts | 311° |
| 2026-05-06 10:56 | 43.98028 | 15.19563 | 36033 ft | 434 kts | 311° |
| 2026-05-06 10:57 | 44.06836 | 15.08056 | 36008 ft | 435 kts | 311° |
| 2026-05-06 10:57 | 44.15646 | 14.96492 | 36029 ft | 436 kts | 310° |
| 2026-05-06 10:58 | 44.24470 | 14.84870 | 36025 ft | 437 kts | 310° |
| 2026-05-06 10:58 | 44.33289 | 14.73206 | 36021 ft | 437 kts | 310° |
| 2026-05-06 10:59 | 44.42086 | 14.61495 | 36017 ft | 436 kts | 310° |
| 2026-05-06 10:59 | 44.50871 | 14.49773 | 36019 ft | 436 kts | 310° |
| 2026-05-06 11:00 | 44.59697 | 14.38124 | 36029 ft | 436 kts | 311° |
| 2026-05-06 11:00 | 44.68581 | 14.26541 | 36031 ft | 435 kts | 310° |
| 2026-05-06 11:01 | 44.77399 | 14.14904 | 36045 ft | 435 kts | 310° |
| 2026-05-06 11:01 | 44.86266 | 14.03172 | 36023 ft | 436 kts | 310° |
| 2026-05-06 11:02 | 44.95083 | 13.91468 | 36017 ft | 434 kts | 310° |
| 2026-05-06 11:02 | 45.03814 | 13.79799 | 35977 ft | 433 kts | 309° |
| 2026-05-06 11:03 | 45.12534 | 13.68119 | 35966 ft | 435 kts | 309° |
| 2026-05-06 11:03 | 45.21327 | 13.56292 | 35998 ft | 436 kts | 309° |
| 2026-05-06 11:04 | 45.30090 | 13.44442 | 35971 ft | 434 kts | 309° |
| 2026-05-06 11:04 | 45.38802 | 13.32596 | 35968 ft | 434 kts | 309° |
| 2026-05-06 11:05 | 45.47494 | 13.20725 | 35931 ft | 431 kts | 309° |
| 2026-05-06 11:05 | 45.56127 | 13.08897 | 35919 ft | 431 kts | 308° |
| 2026-05-06 11:06 | 45.64738 | 12.97038 | 35957 ft | 432 kts | 308° |
| 2026-05-06 11:06 | 45.73474 | 12.85197 | 35945 ft | 434 kts | 310° |
| 2026-05-06 11:07 | 45.82426 | 12.73539 | 35948 ft | 435 kts | 309° |
| 2026-05-06 11:07 | 45.91304 | 12.61766 | 35940 ft | 433 kts | 309° |
| 2026-05-06 11:08 | 46.00146 | 12.49973 | 35926 ft | 433 kts | 309° |
| 2026-05-06 11:08 | 46.09009 | 12.38138 | 35947 ft | 435 kts | 309° |
| 2026-05-06 11:09 | 46.17841 | 12.26264 | 35938 ft | 438 kts | 309° |
| 2026-05-06 11:09 | 46.26742 | 12.14240 | 35930 ft | 439 kts | 309° |
| 2026-05-06 11:10 | 46.35645 | 12.02174 | 35953 ft | 439 kts | 309° |
| 2026-05-06 11:10 | 46.40461 | 11.95619 | 35942 ft | 439 kts | 309° |
| 2026-05-06 11:11 | 46.44901 | 11.89553 | 35922 ft | 438 kts | 309° |
| 2026-05-06 11:11 | 46.49335 | 11.83499 | 35922 ft | 438 kts | 309° |
| 2026-05-06 11:12 | 46.53015 | 11.78455 | 35911 ft | 438 kts | 309° |
| 2026-05-06 11:12 | 46.57438 | 11.72376 | 35912 ft | 438 kts | 309° |
| 2026-05-06 11:13 | 46.61858 | 11.66294 | 35915 ft | 437 kts | 309° |
| 2026-05-06 11:13 | 46.66268 | 11.60213 | 35910 ft | 436 kts | 309° |
| 2026-05-06 11:14 | 46.70665 | 11.54122 | 35913 ft | 436 kts | 309° |
| 2026-05-06 11:14 | 46.75064 | 11.48027 | 35908 ft | 436 kts | 309° |
| 2026-05-06 11:15 | 46.79456 | 11.41932 | 35941 ft | 437 kts | 308° |
| 2026-05-06 11:15 | 46.83852 | 11.35812 | 35913 ft | 437 kts | 309° |
| 2026-05-06 11:16 | 46.88261 | 11.29657 | 35895 ft | 439 kts | 309° |
| 2026-05-06 11:16 | 46.92673 | 11.23484 | 35873 ft | 439 kts | 309° |
| 2026-05-06 11:17 | 46.97001 | 11.17194 | 35864 ft | 437 kts | 306° |
| 2026-05-06 11:17 | 47.01098 | 11.10649 | 35876 ft | 436 kts | 304° |
| 2026-05-06 11:18 | 47.05123 | 11.04068 | 35823 ft | 437 kts | 304° |
| 2026-05-06 11:18 | 47.09250 | 10.97433 | 35836 ft | 439 kts | 305° |
| 2026-05-06 11:19 | 47.13391 | 10.90842 | 35786 ft | 439 kts | 305° |
| 2026-05-06 11:19 | 47.17504 | 10.84289 | 35786 ft | 439 kts | 305° |
| 2026-05-06 11:20 | 47.21633 | 10.77677 | 35815 ft | 440 kts | 305° |
| 2026-05-06 11:20 | 47.25769 | 10.71021 | 35790 ft | 441 kts | 305° |
| 2026-05-06 11:21 | 47.29905 | 10.64359 | 35786 ft | 441 kts | 305° |
| 2026-05-06 11:21 | 47.34043 | 10.57676 | 35788 ft | 442 kts | 305° |
| 2026-05-06 11:22 | 47.38179 | 10.50958 | 35796 ft | 443 kts | 305° |
| 2026-05-06 11:22 | 47.42774 | 10.44798 | 35829 ft | 452 kts | 315° |
| 2026-05-06 11:23 | 47.47752 | 10.39095 | 35803 ft | 452 kts | 315° |
| 2026-05-06 11:23 | 47.52726 | 10.33375 | 35813 ft | 454 kts | 315° |
| 2026-05-06 11:24 | 47.57704 | 10.27624 | 35820 ft | 454 kts | 315° |
| 2026-05-06 11:24 | 47.62676 | 10.21862 | 35824 ft | 454 kts | 315° |
| 2026-05-06 11:25 | 47.67647 | 10.16091 | 35821 ft | 454 kts | 315° |
| 2026-05-06 11:25 | 47.72627 | 10.10299 | 35831 ft | 455 kts | 316° |
| 2026-05-06 11:26 | 47.77607 | 10.04493 | 35833 ft | 455 kts | 315° |
| 2026-05-06 11:26 | 47.82556 | 9.98700 | 35825 ft | 456 kts | 316° |
| 2026-05-06 11:27 | 47.87575 | 9.92825 | 35825 ft | 456 kts | 316° |
| 2026-05-06 11:27 | 47.92558 | 9.86980 | 35820 ft | 456 kts | 316° |
| 2026-05-06 11:28 | 47.97536 | 9.81117 | 35819 ft | 456 kts | 315° |
| 2026-05-06 11:28 | 48.02515 | 9.75235 | 35834 ft | 456 kts | 316° |
| 2026-05-06 11:29 | 48.07494 | 9.69335 | 35825 ft | 457 kts | 316° |
| 2026-05-06 11:29 | 48.12133 | 9.63027 | 35820 ft | 452 kts | 310° |
| 2026-05-06 11:30 | 48.16656 | 9.56476 | 35823 ft | 453 kts | 310° |
| 2026-05-06 11:30 | 48.21178 | 9.49920 | 35823 ft | 453 kts | 310° |
| 2026-05-06 11:31 | 48.25707 | 9.43339 | 35852 ft | 453 kts | 310° |
| 2026-05-06 11:31 | 48.30228 | 9.36750 | 35842 ft | 453 kts | 310° |
| 2026-05-06 11:32 | 48.34737 | 9.30154 | 35835 ft | 452 kts | 310° |
| 2026-05-06 11:32 | 48.39242 | 9.23536 | 35832 ft | 452 kts | 310° |
| 2026-05-06 11:33 | 48.43742 | 9.16918 | 35826 ft | 452 kts | 310° |
| 2026-05-06 11:33 | 48.48232 | 9.10290 | 35824 ft | 452 kts | 310° |
| 2026-05-06 11:34 | 48.52732 | 9.03653 | 35840 ft | 452 kts | 310° |
| 2026-05-06 11:34 | 48.57213 | 8.97015 | 35832 ft | 452 kts | 310° |
| 2026-05-06 11:35 | 48.61706 | 8.90333 | 35827 ft | 452 kts | 310° |
| 2026-05-06 11:35 | 48.66189 | 8.83661 | 35825 ft | 452 kts | 310° |
| 2026-05-06 11:36 | 48.70669 | 8.76971 | 35825 ft | 452 kts | 310° |
| 2026-05-06 11:36 | 48.75150 | 8.70265 | 35842 ft | 452 kts | 310° |
| 2026-05-06 11:37 | 48.79616 | 8.63565 | 35834 ft | 452 kts | 311° |
| 2026-05-06 11:37 | 48.84077 | 8.56852 | 35834 ft | 451 kts | 310° |
| 2026-05-06 11:38 | 48.88531 | 8.50128 | 35829 ft | 451 kts | 310° |
| 2026-05-06 11:38 | 48.92971 | 8.43408 | 35827 ft | 451 kts | 310° |
| 2026-05-06 11:39 | 48.97422 | 8.36649 | 35821 ft | 451 kts | 310° |
| 2026-05-06 11:39 | 49.01854 | 8.29907 | 35826 ft | 451 kts | 311° |
| 2026-05-06 11:40 | 49.06285 | 8.23142 | 35823 ft | 451 kts | 310° |
| 2026-05-06 11:40 | 49.10713 | 8.16367 | 35821 ft | 450 kts | 310° |
| 2026-05-06 11:41 | 49.15134 | 8.09588 | 35817 ft | 451 kts | 310° |
| 2026-05-06 11:41 | 49.19551 | 8.02799 | 35813 ft | 450 kts | 310° |
| 2026-05-06 11:42 | 49.23959 | 7.95999 | 35826 ft | 451 kts | 311° |
| 2026-05-06 11:42 | 49.28345 | 7.89216 | 35816 ft | 451 kts | 311° |
| 2026-05-06 11:43 | 49.32768 | 7.82365 | 35805 ft | 452 kts | 311° |
| 2026-05-06 11:43 | 49.37190 | 7.75490 | 35792 ft | 453 kts | 311° |
| 2026-05-06 11:44 | 49.43813 | 7.65148 | 35809 ft | 453 kts | 310° |
| 2026-05-06 11:44 | 49.48229 | 7.58236 | 35813 ft | 453 kts | 311° |
| 2026-05-06 11:45 | 49.52649 | 7.51303 | 35804 ft | 454 kts | 310° |
| 2026-05-06 11:45 | 49.57076 | 7.44352 | 35790 ft | 455 kts | 310° |
| 2026-05-06 11:46 | 49.61498 | 7.37374 | 35792 ft | 455 kts | 310° |
| 2026-05-06 11:46 | 49.65913 | 7.30377 | 35788 ft | 455 kts | 310° |
| 2026-05-06 11:47 | 49.70319 | 7.23371 | 35782 ft | 455 kts | 310° |
| 2026-05-06 11:47 | 49.74697 | 7.16394 | 35800 ft | 454 kts | 311° |
| 2026-05-06 11:48 | 49.79091 | 7.09387 | 35799 ft | 453 kts | 311° |
| 2026-05-06 11:48 | 49.83480 | 7.02384 | 35799 ft | 453 kts | 311° |
| 2026-05-06 11:49 | 49.87850 | 6.95381 | 35800 ft | 452 kts | 311° |
| 2026-05-06 11:49 | 49.92211 | 6.88351 | 35800 ft | 452 kts | 310° |
| 2026-05-06 11:50 | 49.96567 | 6.81317 | 35816 ft | 452 kts | 311° |
| 2026-05-06 11:50 | 50.00924 | 6.74276 | 35812 ft | 452 kts | 311° |
| 2026-05-06 11:51 | 50.05283 | 6.67212 | 35805 ft | 453 kts | 311° |
| 2026-05-06 11:51 | 50.09634 | 6.60123 | 35799 ft | 453 kts | 311° |
| 2026-05-06 11:52 | 50.13955 | 6.53056 | 35794 ft | 453 kts | 310° |
| 2026-05-06 11:52 | 50.18303 | 6.45863 | 35792 ft | 452 kts | 307° |
| 2026-05-06 11:53 | 50.21912 | 6.37958 | 35824 ft | 450 kts | 301° |
| 2026-05-06 11:53 | 50.25439 | 6.29891 | 35823 ft | 450 kts | 302° |
| 2026-05-06 11:54 | 50.28967 | 6.21822 | 35843 ft | 450 kts | 302° |
| 2026-05-06 11:54 | 50.32491 | 6.13745 | 35842 ft | 450 kts | 301° |
| 2026-05-06 11:55 | 50.36008 | 6.05639 | 35865 ft | 450 kts | 301° |
| 2026-05-06 11:55 | 50.39514 | 5.97515 | 35879 ft | 450 kts | 302° |
| 2026-05-06 11:56 | 50.43011 | 5.89401 | 35884 ft | 449 kts | 302° |
| 2026-05-06 11:56 | 50.46498 | 5.81292 | 35883 ft | 448 kts | 302° |
| 2026-05-06 11:57 | 50.49981 | 5.73179 | 35889 ft | 448 kts | 302° |
| 2026-05-06 11:57 | 50.53452 | 5.65062 | 35891 ft | 447 kts | 302° |
| 2026-05-06 11:58 | 50.56912 | 5.56939 | 35901 ft | 447 kts | 302° |
| 2026-05-06 11:58 | 50.59800 | 5.50134 | 35890 ft | 446 kts | 301° |
| 2026-05-06 11:59 | 50.63236 | 5.41999 | 35881 ft | 446 kts | 301° |
| 2026-05-06 11:59 | 50.66649 | 5.33911 | 35877 ft | 446 kts | 301° |
| 2026-05-06 12:00 | 50.70085 | 5.25763 | 35881 ft | 446 kts | 301° |
| 2026-05-06 12:00 | 50.73521 | 5.17586 | 35881 ft | 447 kts | 301° |
| 2026-05-06 12:01 | 50.76933 | 5.09403 | 35906 ft | 447 kts | 301° |
| 2026-05-06 12:01 | 50.80354 | 5.01193 | 35898 ft | 447 kts | 301° |
| 2026-05-06 12:02 | 50.83772 | 4.92984 | 35896 ft | 447 kts | 301° |
| 2026-05-06 12:02 | 50.87180 | 4.84747 | 35903 ft | 448 kts | 301° |
| 2026-05-06 12:03 | 50.90581 | 4.76509 | 35902 ft | 447 kts | 301° |
| 2026-05-06 12:03 | 50.93985 | 4.68252 | 35912 ft | 448 kts | 301° |
| 2026-05-06 12:04 | 50.97383 | 4.59982 | 35911 ft | 447 kts | 301° |
| 2026-05-06 12:04 | 51.00768 | 4.51694 | 35911 ft | 447 kts | 301° |
| 2026-05-06 12:05 | 51.04124 | 4.43457 | 35910 ft | 447 kts | 301° |
| 2026-05-06 12:05 | 51.07503 | 4.35139 | 35910 ft | 447 kts | 301° |
| 2026-05-06 12:06 | 51.10870 | 4.26833 | 35912 ft | 447 kts | 301° |
| 2026-05-06 12:06 | 51.14234 | 4.18505 | 35912 ft | 447 kts | 301° |
| 2026-05-06 12:07 | 51.17598 | 4.10152 | 35912 ft | 447 kts | 301° |
| 2026-05-06 12:07 | 51.20947 | 4.01795 | 35913 ft | 447 kts | 301° |
| 2026-05-06 12:08 | 51.24297 | 3.93422 | 35918 ft | 447 kts | 301° |
| 2026-05-06 12:08 | 51.27642 | 3.85042 | 35926 ft | 447 kts | 301° |
| 2026-05-06 12:09 | 51.30967 | 3.76662 | 35931 ft | 447 kts | 301° |
| 2026-05-06 12:09 | 51.34267 | 3.68245 | 35929 ft | 445 kts | 297° |
| 2026-05-06 12:10 | 51.36447 | 3.59127 | 35940 ft | 441 kts | 284° |
| 2026-05-06 12:10 | 51.38104 | 3.49666 | 35938 ft | 441 kts | 284° |
| 2026-05-06 12:11 | 51.39777 | 3.40214 | 35943 ft | 441 kts | 284° |
| 2026-05-06 12:11 | 51.41434 | 3.30756 | 35948 ft | 441 kts | 284° |
| 2026-05-06 12:12 | 51.43056 | 3.21371 | 35828 ft | 433 kts | 283° |
| 2026-05-06 12:12 | 51.43859 | 3.16684 | 34760 ft | 443 kts | 283° |
| 2026-05-06 12:12 | 51.44680 | 3.11869 | 33878 ft | 449 kts | 284° |
| 2026-05-06 12:13 | 51.45504 | 3.07029 | 33041 ft | 450 kts | 284° |
| 2026-05-06 12:13 | 51.46320 | 3.02162 | 32552 ft | 444 kts | 284° |
| 2026-05-06 12:13 | 51.47098 | 2.97464 | 32039 ft | 439 kts | 283° |
| 2026-05-06 12:13 | 51.47874 | 2.92748 | 31528 ft | 435 kts | 283° |
| 2026-05-06 12:14 | 51.48639 | 2.88080 | 31025 ft | 431 kts | 283° |
| 2026-05-06 12:14 | 51.49394 | 2.83446 | 30517 ft | 427 kts | 283° |
| 2026-05-06 12:14 | 51.50139 | 2.78866 | 30015 ft | 423 kts | 283° |
| 2026-05-06 12:14 | 51.50883 | 2.74307 | 29472 ft | 418 kts | 284° |
| 2026-05-06 12:15 | 51.51616 | 2.69823 | 29012 ft | 413 kts | 282° |
| 2026-05-06 12:15 | 51.52335 | 2.65394 | 28533 ft | 407 kts | 283° |
| 2026-05-06 12:15 | 51.53040 | 2.61016 | 28071 ft | 403 kts | 283° |
| 2026-05-06 12:15 | 51.53734 | 2.56681 | 27626 ft | 398 kts | 283° |
| 2026-05-06 12:16 | 51.54419 | 2.52405 | 27190 ft | 394 kts | 283° |
| 2026-05-06 12:16 | 51.55209 | 2.48205 | 26767 ft | 391 kts | 288° |
| 2026-05-06 12:16 | 51.56145 | 2.44128 | 26349 ft | 387 kts | 288° |
| 2026-05-06 12:16 | 51.57072 | 2.40078 | 25934 ft | 384 kts | 288° |
| 2026-05-06 12:17 | 51.57989 | 2.36065 | 25512 ft | 382 kts | 288° |
| 2026-05-06 12:17 | 51.58903 | 2.32061 | 25092 ft | 381 kts | 288° |
| 2026-05-06 12:17 | 51.59817 | 2.28067 | 24618 ft | 381 kts | 288° |
| 2026-05-06 12:17 | 51.60727 | 2.24070 | 24182 ft | 380 kts | 288° |
| 2026-05-06 12:18 | 51.61633 | 2.20075 | 23766 ft | 379 kts | 288° |
| 2026-05-06 12:18 | 51.62570 | 2.16119 | 23294 ft | 379 kts | 294° |
| 2026-05-06 12:18 | 51.63930 | 2.12497 | 22837 ft | 379 kts | 307° |
| 2026-05-06 12:18 | 51.65766 | 2.09458 | 22351 ft | 379 kts | 320° |
| 2026-05-06 12:19 | 51.67985 | 2.07159 | 21860 ft | 380 kts | 330° |
| 2026-05-06 12:19 | 51.70314 | 2.05196 | 21462 ft | 376 kts | 331° |
| 2026-05-06 12:19 | 51.72575 | 2.03282 | 21061 ft | 372 kts | 330° |
| 2026-05-06 12:19 | 51.74889 | 2.01320 | 20640 ft | 368 kts | 330° |
| 2026-05-06 12:20 | 51.77143 | 1.99404 | 20234 ft | 364 kts | 330° |
| 2026-05-06 12:20 | 51.79370 | 1.97503 | 19843 ft | 360 kts | 330° |
| 2026-05-06 12:20 | 51.81573 | 1.95617 | 19440 ft | 357 kts | 329° |
| 2026-05-06 12:20 | 51.83753 | 1.93747 | 19051 ft | 353 kts | 330° |
| 2026-05-06 12:21 | 51.85912 | 1.91893 | 18655 ft | 350 kts | 330° |
| 2026-05-06 12:21 | 51.88050 | 1.90049 | 18282 ft | 346 kts | 328° |
| 2026-05-06 12:21 | 51.89998 | 1.87823 | 17860 ft | 340 kts | 316° |
| 2026-05-06 12:21 | 51.91583 | 1.85064 | 17753 ft | 332 kts | 308° |
| 2026-05-06 12:22 | 51.93061 | 1.82195 | 17672 ft | 332 kts | 308° |
| 2026-05-06 12:22 | 51.94547 | 1.79329 | 17604 ft | 332 kts | 309° |
| 2026-05-06 12:22 | 51.96013 | 1.76508 | 17497 ft | 331 kts | 308° |
| 2026-05-06 12:22 | 51.97494 | 1.73660 | 17391 ft | 330 kts | 308° |
| 2026-05-06 12:23 | 51.98967 | 1.70812 | 17286 ft | 329 kts | 309° |
| 2026-05-06 12:23 | 52.00438 | 1.67958 | 17178 ft | 329 kts | 308° |
| 2026-05-06 12:23 | 52.01924 | 1.65069 | 17069 ft | 328 kts | 308° |
| 2026-05-06 12:23 | 52.03365 | 1.62263 | 16965 ft | 328 kts | 308° |
| 2026-05-06 12:24 | 52.04843 | 1.59382 | 16858 ft | 327 kts | 308° |
| 2026-05-06 12:24 | 52.06298 | 1.56547 | 16751 ft | 326 kts | 308° |
| 2026-05-06 12:24 | 52.07749 | 1.53716 | 16642 ft | 326 kts | 308° |
| 2026-05-06 12:24 | 52.09193 | 1.50889 | 16542 ft | 325 kts | 308° |
| 2026-05-06 12:25 | 52.10638 | 1.48052 | 16434 ft | 325 kts | 308° |
| 2026-05-06 12:25 | 52.12076 | 1.45235 | 16327 ft | 324 kts | 308° |
| 2026-05-06 12:25 | 52.13515 | 1.42418 | 16226 ft | 322 kts | 308° |
| 2026-05-06 12:25 | 52.14918 | 1.39583 | 16118 ft | 320 kts | 303° |
| 2026-05-06 12:26 | 52.15973 | 1.36413 | 16020 ft | 318 kts | 290° |
| 2026-05-06 12:26 | 52.16561 | 1.32954 | 15910 ft | 317 kts | 278° |
| 2026-05-06 12:26 | 52.16838 | 1.29398 | 15811 ft | 318 kts | 277° |
| 2026-05-06 12:26 | 52.17114 | 1.25826 | 15708 ft | 316 kts | 277° |
| 2026-05-06 12:27 | 52.17395 | 1.22283 | 15604 ft | 316 kts | 277° |
| 2026-05-06 12:27 | 52.17679 | 1.18732 | 15502 ft | 316 kts | 277° |
| 2026-05-06 12:27 | 52.17962 | 1.15189 | 15401 ft | 315 kts | 277° |
| 2026-05-06 12:27 | 52.18243 | 1.11644 | 15298 ft | 316 kts | 277° |
| 2026-05-06 12:28 | 52.18520 | 1.08102 | 15195 ft | 316 kts | 277° |
| 2026-05-06 12:28 | 52.18796 | 1.04554 | 15095 ft | 316 kts | 277° |
| 2026-05-06 12:28 | 52.19070 | 1.01020 | 14991 ft | 313 kts | 277° |
| 2026-05-06 12:28 | 52.19341 | 0.97498 | 14883 ft | 313 kts | 277° |
| 2026-05-06 12:29 | 52.19610 | 0.93993 | 14789 ft | 310 kts | 277° |
| 2026-05-06 12:29 | 52.19876 | 0.90521 | 14698 ft | 308 kts | 277° |
| 2026-05-06 12:29 | 52.20140 | 0.87044 | 14598 ft | 309 kts | 277° |
| 2026-05-06 12:29 | 52.20403 | 0.83560 | 14500 ft | 310 kts | 277° |
| 2026-05-06 12:30 | 52.20663 | 0.80076 | 14402 ft | 309 kts | 277° |
| 2026-05-06 12:30 | 52.20923 | 0.76589 | 14300 ft | 311 kts | 277° |
| 2026-05-06 12:30 | 52.21183 | 0.73105 | 14197 ft | 309 kts | 277° |
| 2026-05-06 12:30 | 52.21443 | 0.69619 | 14099 ft | 307 kts | 277° |
| 2026-05-06 12:31 | 52.21695 | 0.66229 | 13923 ft | 298 kts | 277° |
| 2026-05-06 12:31 | 52.21937 | 0.62913 | 13825 ft | 291 kts | 277° |
| 2026-05-06 12:31 | 52.22175 | 0.59633 | 13674 ft | 292 kts | 277° |
| 2026-05-06 12:31 | 52.22413 | 0.56368 | 13511 ft | 289 kts | 277° |
| 2026-05-06 12:32 | 52.22654 | 0.53116 | 13358 ft | 290 kts | 277° |
| 2026-05-06 12:32 | 52.22895 | 0.49847 | 13192 ft | 289 kts | 277° |
| 2026-05-06 12:32 | 52.23131 | 0.46607 | 13036 ft | 288 kts | 277° |
| 2026-05-06 12:32 | 52.23362 | 0.43406 | 12878 ft | 289 kts | 277° |
| 2026-05-06 12:33 | 52.23599 | 0.40140 | 12721 ft | 290 kts | 277° |
| 2026-05-06 12:33 | 52.23834 | 0.36894 | 12553 ft | 286 kts | 277° |
| 2026-05-06 12:33 | 52.24064 | 0.33688 | 12413 ft | 284 kts | 277° |
| 2026-05-06 12:33 | 52.24291 | 0.30473 | 12259 ft | 286 kts | 277° |
| 2026-05-06 12:34 | 52.24512 | 0.27264 | 12102 ft | 282 kts | 277° |
| 2026-05-06 12:34 | 52.24732 | 0.24086 | 11949 ft | 282 kts | 277° |
| 2026-05-06 12:34 | 52.24955 | 0.20918 | 11793 ft | 282 kts | 278° |
| 2026-05-06 12:34 | 52.25179 | 0.17732 | 11640 ft | 284 kts | 277° |
| 2026-05-06 12:35 | 52.25406 | 0.14496 | 11479 ft | 281 kts | 278° |